Time;durP1;ratioP1;P1;durP2;ratioP2;P2;SDS_P1;SDS_P2;PMS_P1;PMS_P2;Temp;Humidity;BMP_temperature;BMP_pressure;BME280_temperature;BME280_humidity;BME280_pressure;Samples;Min_cycle;Max_cycle;Signal;HPM_P1;HPM_P2
2023/07/07 00:02:22;;;;;;;8.55;4.40;;;14.10;99.90;;;;;;5091564;28;20044;-67
2023/07/07 00:04:48;;;;;;;6.35;4.00;;;14.10;99.90;;;;;;5091700;28;20097;-67
2023/07/07 00:07:14;;;;;;;9.35;4.93;;;14.10;99.90;;;;;;5092428;28;20040;-67
2023/07/07 00:09:40;;;;;;;6.07;3.45;;;14.10;99.90;;;;;;5092529;28;20040;-67
2023/07/07 00:12:06;;;;;;;8.10;3.85;;;14.00;99.90;;;;;;5090789;28;20036;-67
2023/07/07 00:14:32;;;;;;;7.22;4.15;;;14.00;99.90;;;;;;5092524;28;20044;-67
2023/07/07 00:17:01;;;;;;;8.85;4.38;;;13.90;99.90;;;;;;5090765;28;20510;-67
2023/07/07 00:19:36;;;;;;;6.32;3.78;;;13.90;99.90;;;;;;5090973;28;20044;-67
2023/07/07 00:22:05;;;;;;;6.82;3.30;;;13.80;99.90;;;;;;5090995;28;20047;-67
2023/07/07 00:24:32;;;;;;;7.53;3.50;;;13.70;99.90;;;;;;5090237;28;20044;-67
2023/07/07 00:26:59;;;;;;;6.40;3.75;;;13.70;99.90;;;;;;5074368;28;20040;-67
2023/07/07 00:29:25;;;;;;;6.15;3.25;;;13.60;99.90;;;;;;5090858;28;20118;-67
2023/07/07 00:31:50;;;;;;;6.60;3.63;;;13.60;99.90;;;;;;5073323;28;20134;-67
2023/07/07 00:34:16;;;;;;;6.18;3.63;;;13.50;99.90;;;;;;5092227;28;20051;-67
2023/07/07 00:36:42;;;;;;;6.97;3.88;;;13.50;99.90;;;;;;5090683;28;20040;-67
2023/07/07 00:39:08;;;;;;;6.10;3.33;;;13.40;99.90;;;;;;5076960;28;20549;-67
2023/07/07 00:41:34;;;;;;;7.03;3.45;;;13.40;99.90;;;;;;5090861;28;20122;-66
2023/07/07 00:44:10;;;;;;;6.85;3.35;;;13.40;99.90;;;;;;5091760;28;20091;-67
2023/07/07 00:46:37;;;;;;;6.03;3.45;;;13.40;99.90;;;;;;5073266;28;20038;-66
2023/07/07 00:49:08;;;;;;;7.07;3.40;;;13.40;99.90;;;;;;5091685;28;20496;-67
2023/07/07 00:51:41;;;;;;;9.00;4.28;;;13.30;99.90;;;;;;5092189;28;20040;-67
2023/07/07 00:54:14;;;;;;;6.38;3.63;;;13.40;99.90;;;;;;5090008;28;20044;-67
2023/07/07 00:56:44;;;;;;;8.20;3.92;;;13.30;99.90;;;;;;5090657;28;20059;-67
2023/07/07 00:59:15;;;;;;;7.95;4.43;;;13.20;99.90;;;;;;5091534;28;20488;-67
2023/07/07 01:01:42;;;;;;;7.28;4.38;;;13.20;99.90;;;;;;5092174;28;20047;-66
2023/07/07 01:04:14;;;;;;;9.63;4.32;;;13.10;99.90;;;;;;5090781;28;20048;-66
2023/07/07 01:06:44;;;;;;;7.15;4.03;;;13.20;99.90;;;;;;5094727;28;20040;-67
2023/07/07 01:09:10;;;;;;;8.88;4.35;;;13.20;99.90;;;;;;5094467;28;20047;-67
2023/07/07 01:11:37;;;;;;;6.57;4.10;;;13.10;99.90;;;;;;5094736;28;20036;-67
2023/07/07 01:14:13;;;;;;;11.73;4.22;;;13.10;99.90;;;;;;5095100;28;20130;-67
2023/07/07 01:17:01;;;;;;;7.97;4.80;;;13.10;99.90;;;;;;5096396;28;20082;-67
2023/07/07 01:20:08;;;;;;;7.10;4.15;;;13.10;99.90;;;;;;5094597;28;20051;-67
2023/07/07 01:22:55;;;;;;;7.20;4.05;;;13.10;99.90;;;;;;5093568;28;20040;-67
2023/07/07 01:25:42;;;;;;;8.95;4.25;;;13.00;99.90;;;;;;5043823;28;20575;-67
2023/07/07 01:28:38;;;;;;;8.60;4.20;;;13.00;99.90;;;;;;5094873;28;20532;-67
2023/07/07 01:31:10;;;;;;;9.32;4.25;;;13.00;99.90;;;;;;5094164;28;20431;-67
2023/07/07 01:33:36;;;;;;;6.93;4.38;;;12.90;99.90;;;;;;5094236;28;20044;-67
2023/07/07 01:36:01;;;;;;;7.38;4.45;;;12.90;99.90;;;;;;5095009;28;20047;-67
2023/07/07 01:38:43;;;;;;;7.78;4.22;;;12.90;99.90;;;;;;5095221;28;20028;-67
2023/07/07 01:41:14;;;;;;;7.95;4.40;;;12.90;99.90;;;;;;5094536;28;20089;-67
2023/07/07 01:43:49;;;;;;;7.80;3.85;;;12.80;99.90;;;;;;5094179;28;20500;-67
2023/07/07 01:46:53;;;;;;;7.72;3.90;;;12.80;99.90;;;;;;5076888;28;20044;-67
2023/07/07 01:49:42;;;;;;;8.50;3.70;;;12.80;99.90;;;;;;5092116;28;20048;-67
2023/07/07 01:52:18;;;;;;;7.78;4.60;;;12.70;99.90;;;;;;5094272;28;20393;-67
2023/07/07 01:54:52;;;;;;;6.75;3.88;;;12.70;99.90;;;;;;5095295;28;20039;-67
2023/07/07 01:57:20;;;;;;;8.95;4.90;;;12.70;99.90;;;;;;5093066;28;20105;-67
2023/07/07 01:59:46;;;;;;;11.68;4.38;;;12.70;99.90;;;;;;5093894;28;20101;-67
2023/07/07 02:02:13;;;;;;;8.00;3.67;;;12.70;99.90;;;;;;5094100;28;20476;-67
2023/07/07 02:04:39;;;;;;;10.63;4.35;;;12.70;99.90;;;;;;5093070;28;20050;-67
2023/07/07 02:07:05;;;;;;;7.78;4.22;;;12.70;99.90;;;;;;5095271;28;20032;-67
2023/07/07 02:09:32;;;;;;;8.00;4.57;;;12.60;99.90;;;;;;5092827;28;20072;-67
2023/07/07 02:11:58;;;;;;;7.10;4.20;;;12.60;99.90;;;;;;5093551;28;20539;-67
2023/07/07 02:14:24;;;;;;;8.20;4.07;;;12.60;99.90;;;;;;5094754;28;20086;-67
2023/07/07 02:16:49;;;;;;;7.95;4.20;;;12.60;99.90;;;;;;5092121;28;20040;-67
2023/07/07 02:19:16;;;;;;;7.82;4.30;;;12.60;99.90;;;;;;5094271;28;20040;-67
2023/07/07 02:21:42;;;;;;;7.35;4.15;;;12.60;99.90;;;;;;5093126;28;20036;-67
2023/07/07 02:24:07;;;;;;;7.30;4.40;;;12.50;99.90;;;;;;5126606;27;20044;-67
2023/07/07 02:26:33;;;;;;;7.15;4.22;;;12.50;99.90;;;;;;5127553;27;20083;-67
2023/07/07 02:28:59;;;;;;;8.30;4.45;;;12.50;99.90;;;;;;5094259;28;20036;-67
2023/07/07 02:31:26;;;;;;;6.22;3.25;;;12.50;99.90;;;;;;5093580;28;20059;-67
2023/07/07 02:33:52;;;;;;;9.32;4.22;;;12.50;99.90;;;;;;5094345;28;20114;-67
2023/07/07 02:36:18;;;;;;;9.68;4.40;;;12.40;99.90;;;;;;5093295;28;20090;-67
2023/07/07 02:38:45;;;;;;;8.27;4.22;;;12.40;99.90;;;;;;5093587;28;20043;-67
2023/07/07 02:41:11;;;;;;;8.30;4.07;;;12.30;99.90;;;;;;5093099;28;20055;-67
2023/07/07 02:43:37;;;;;;;7.15;4.20;;;12.30;99.90;;;;;;5126690;27;20059;-67
2023/07/07 02:46:03;;;;;;;8.57;5.07;;;12.20;99.90;;;;;;5126177;27;20043;-67
2023/07/07 02:48:29;;;;;;;7.63;4.43;;;12.20;99.90;;;;;;5092393;28;20119;-67
2023/07/07 02:51:00;;;;;;;7.75;4.15;;;12.20;99.90;;;;;;5092752;28;20473;-67
2023/07/07 02:53:28;;;;;;;8.57;4.90;;;12.20;99.90;;;;;;5093240;28;20435;-67
2023/07/07 02:55:54;;;;;;;8.63;5.00;;;12.10;99.90;;;;;;5076047;28;20528;-67
2023/07/07 02:58:21;;;;;;;8.00;4.60;;;12.10;99.90;;;;;;5075660;28;20127;-67
2023/07/07 03:00:47;;;;;;;8.60;4.68;;;12.10;99.90;;;;;;5091622;28;20152;-67
2023/07/07 03:03:12;;;;;;;9.80;4.70;;;12.00;99.90;;;;;;5093690;28;20504;-67
2023/07/07 03:05:38;;;;;;;6.20;4.10;;;12.00;99.90;;;;;;5092700;28;20126;-67
2023/07/07 03:08:04;;;;;;;9.98;4.68;;;11.90;99.90;;;;;;5125349;27;20127;-67
2023/07/07 03:10:35;;;;;;;9.55;4.25;;;11.90;99.90;;;;;;5126177;27;20058;-67
2023/07/07 03:13:01;;;;;;;7.82;4.30;;;11.90;99.90;;;;;;5091448;28;20039;-67
2023/07/07 03:15:38;;;;;;;8.10;4.47;;;11.90;99.90;;;;;;5093686;28;20036;-67
2023/07/07 03:18:14;;;;;;;8.73;5.05;;;11.80;99.90;;;;;;5075429;28;20046;-67
2023/07/07 03:20:49;;;;;;;7.72;5.53;;;11.70;99.90;;;;;;5091525;28;20032;-67
2023/07/07 03:23:15;;;;;;;;;;;11.70;99.90;;;;;;5092526;28;20044;-67
2023/07/07 03:25:41;;;;;;;7.53;4.50;;;11.70;99.90;;;;;;5092020;28;19920;-67
2023/07/07 03:28:06;;;;;;;8.45;4.68;;;11.70;99.90;;;;;;5124907;27;20054;-67
2023/07/07 03:30:34;;;;;;;8.70;5.07;;;11.70;99.90;;;;;;5074878;28;20043;-67
2023/07/07 03:33:00;;;;;;;9.35;5.05;;;11.60;99.90;;;;;;5091976;28;20055;-67
2023/07/07 03:35:26;;;;;;;8.82;5.00;;;11.60;99.90;;;;;;5091066;28;20477;-67
2023/07/07 03:37:52;;;;;;;8.32;5.75;;;11.60;99.90;;;;;;5091815;28;20115;-67
2023/07/07 03:40:17;;;;;;;7.03;4.65;;;11.70;99.90;;;;;;5092579;28;20169;-67
2023/07/07 03:42:43;;;;;;;7.30;4.00;;;11.60;99.90;;;;;;5092320;28;20036;-67
2023/07/07 03:45:10;;;;;;;7.20;4.20;;;11.60;99.90;;;;;;5126354;27;20462;-67
2023/07/07 03:47:35;;;;;;;9.38;4.95;;;11.60;99.90;;;;;;5091598;28;20393;-67
2023/07/07 03:50:01;;;;;;;8.63;5.07;;;11.60;99.90;;;;;;5073026;28;20066;-67
2023/07/07 03:52:27;;;;;;;8.32;4.85;;;11.60;99.90;;;;;;5090711;28;20032;-67
2023/07/07 03:54:52;;;;;;;6.55;3.70;;;11.60;99.90;;;;;;5092783;28;20039;-67
2023/07/07 03:57:18;;;;;;;8.45;4.63;;;11.70;99.90;;;;;;5090868;28;20055;-67
2023/07/07 03:59:44;;;;;;;7.53;4.10;;;11.70;99.90;;;;;;5092363;28;20043;-67
2023/07/07 04:02:09;;;;;;;8.65;4.85;;;11.70;99.90;;;;;;5091025;28;20093;-67
2023/07/07 04:04:35;;;;;;;7.90;4.45;;;11.80;99.90;;;;;;5092479;28;20404;-67
2023/07/07 04:07:01;;;;;;;13.85;5.57;;;11.80;99.90;;;;;;5091469;28;20036;-67
2023/07/07 04:09:27;;;;;;;10.82;5.38;;;11.80;99.90;;;;;;5107212;28;20062;-67
2023/07/07 04:11:52;;;;;;;8.75;5.10;;;11.90;99.90;;;;;;5091009;28;20036;-67
2023/07/07 04:14:19;;;;;;;8.93;5.68;;;12.00;99.90;;;;;;5092076;28;20040;-67
2023/07/07 04:16:44;;;;;;;8.77;5.32;;;12.00;99.90;;;;;;5107254;28;20049;-67
2023/07/07 04:19:11;;;;;;;9.15;5.82;;;12.10;99.90;;;;;;5092748;28;20054;-67
2023/07/07 04:21:36;;;;;;;9.70;6.32;;;12.20;99.90;;;;;;5090947;28;20039;-67
2023/07/07 04:24:03;;;;;;;13.85;7.45;;;12.30;99.90;;;;;;5090122;28;20199;-67
2023/07/07 04:26:30;;;;;;;14.40;8.75;;;12.40;99.90;;;;;;5074399;28;20077;-67
2023/07/07 04:28:59;;;;;;;14.18;9.73;;;12.50;99.90;;;;;;5091267;28;20491;-66
2023/07/07 04:31:26;;;;;;;12.52;9.32;;;12.60;99.90;;;;;;5090209;28;20032;-67
2023/07/07 04:33:53;;;;;;;12.40;10.45;;;12.80;99.90;;;;;;5090455;28;20480;-67
2023/07/07 04:36:19;;;;;;;14.10;11.05;;;12.90;99.90;;;;;;5074159;28;20469;-67
2023/07/07 04:38:46;;;;;;;15.65;11.35;;;13.10;99.90;;;;;;5090175;28;20036;-67
2023/07/07 04:41:19;;;;;;;18.10;11.77;;;13.30;99.90;;;;;;5091306;28;20480;-67
2023/07/07 04:43:56;;;;;;;14.85;11.50;;;13.40;99.90;;;;;;5091173;28;20123;-67
2023/07/07 04:46:24;;;;;;;14.98;11.15;;;13.60;99.90;;;;;;5091271;28;20040;-67
2023/07/07 04:48:50;;;;;;;15.90;11.38;;;13.60;99.90;;;;;;5124782;28;20036;-67
2023/07/07 04:51:16;;;;;;;14.73;11.13;;;13.80;99.90;;;;;;5090905;28;20024;-67
2023/07/07 04:53:42;;;;;;;15.68;12.05;;;13.90;99.90;;;;;;5091708;28;20481;-67
2023/07/07 04:56:11;;;;;;;16.33;12.10;;;14.10;99.90;;;;;;5091136;28;20246;-67
2023/07/07 04:58:39;;;;;;;17.20;12.55;;;14.20;99.90;;;;;;5090017;28;20125;-67
2023/07/07 05:01:26;;;;;;;17.80;11.70;;;14.30;99.90;;;;;;5090896;28;20036;-67
2023/07/07 05:03:55;;;;;;;15.60;11.85;;;14.40;99.90;;;;;;5090630;28;20132;-66
2023/07/07 05:06:22;;;;;;;13.68;11.23;;;14.60;99.90;;;;;;5089551;28;20036;-67
2023/07/07 05:08:48;;;;;;;19.30;11.82;;;14.70;99.90;;;;;;5090557;28;20485;-67
2023/07/07 05:11:17;;;;;;;16.85;11.07;;;14.80;99.90;;;;;;5090455;28;20123;-67
2023/07/07 05:13:46;;;;;;;16.73;10.93;;;15.00;99.90;;;;;;5089858;28;20089;-67
2023/07/07 05:16:13;;;;;;;15.02;11.52;;;15.10;99.90;;;;;;5091941;28;20527;-67
2023/07/07 05:18:40;;;;;;;13.45;10.10;;;15.20;99.90;;;;;;5090683;28;20036;-67
2023/07/07 05:21:07;;;;;;;14.13;10.10;;;15.40;99.90;;;;;;5090397;28;20048;-67
2023/07/07 05:23:34;;;;;;;13.57;10.35;;;15.50;99.90;;;;;;5091673;28;20070;-67
2023/07/07 05:26:00;;;;;;;14.02;9.60;;;15.60;99.90;;;;;;5090334;28;20087;-67
2023/07/07 05:28:26;;;;;;;14.25;10.05;;;15.80;99.90;;;;;;5089885;28;20059;-67
2023/07/07 05:30:51;;;;;;;16.33;11.25;;;15.90;99.90;;;;;;5090271;28;20069;-68
2023/07/07 05:33:17;;;;;;;15.38;9.70;;;16.00;99.90;;;;;;5091613;28;20040;-67
2023/07/07 05:35:48;;;;;;;15.07;10.27;;;16.10;99.90;;;;;;5089726;28;20063;-67
2023/07/07 05:38:16;;;;;;;13.82;9.70;;;16.20;99.90;;;;;;5075881;28;20036;-67
2023/07/07 05:40:45;;;;;;;13.82;9.98;;;16.30;99.90;;;;;;5086048;28;20032;-67
2023/07/07 05:43:15;;;;;;;14.70;9.80;;;16.40;99.90;;;;;;5086697;28;20059;-67
2023/07/07 05:45:41;;;;;;;13.50;9.77;;;16.50;99.90;;;;;;5070296;28;20131;-67
2023/07/07 05:48:09;;;;;;;14.20;9.70;;;16.60;99.90;;;;;;5090187;28;20044;-67
2023/07/07 05:50:34;;;;;;;13.07;9.32;;;16.80;99.90;;;;;;5087443;28;20040;-67
2023/07/07 05:53:01;;;;;;;12.00;8.93;;;16.80;99.90;;;;;;5092714;28;20039;-67
2023/07/07 05:55:34;;;;;;;13.32;8.20;;;17.00;99.90;;;;;;5086985;28;20123;-67
2023/07/07 05:58:04;;;;;;;13.55;10.30;;;17.10;99.90;;;;;;5080216;28;20085;-67
2023/07/07 06:00:32;;;;;;;14.98;9.27;;;17.20;99.90;;;;;;5091006;28;20126;-67
2023/07/07 06:02:58;;;;;;;15.60;9.10;;;17.30;99.90;;;;;;5091571;28;20052;-67
2023/07/07 06:05:25;;;;;;;11.07;8.63;;;17.40;99.90;;;;;;5093200;28;20041;-67
2023/07/07 06:07:52;;;;;;;14.13;8.05;;;17.50;99.90;;;;;;5072632;28;20058;-67
2023/07/07 06:10:18;;;;;;;14.57;7.90;;;17.50;99.90;;;;;;5073988;28;20507;-67
2023/07/07 06:12:44;;;;;;;10.75;8.45;;;17.60;99.90;;;;;;5105925;27;20032;-67
2023/07/07 06:15:11;;;;;;;13.60;9.18;;;17.80;99.90;;;;;;5086311;28;20040;-67
2023/07/07 06:17:36;;;;;;;11.10;7.82;;;17.90;99.90;;;;;;5073808;28;20043;-67
2023/07/07 06:20:03;;;;;;;16.45;7.68;;;18.00;99.90;;;;;;5089102;28;20055;-67
2023/07/07 06:22:29;;;;;;;14.80;8.32;;;18.10;99.90;;;;;;5090589;28;20055;-67
2023/07/07 06:24:55;;;;;;;10.52;7.72;;;18.10;99.90;;;;;;5089591;28;20537;-67
2023/07/07 06:27:21;;;;;;;11.10;7.90;;;18.10;99.90;;;;;;5092045;28;20118;-67
2023/07/07 06:29:47;;;;;;;11.07;8.30;;;18.20;99.90;;;;;;5090025;28;20036;-67
2023/07/07 06:32:13;;;;;;;11.07;7.63;;;18.30;99.90;;;;;;5090671;28;20043;-69
2023/07/07 06:34:39;;;;;;;12.25;8.20;;;18.40;99.90;;;;;;5121428;27;20040;-68
2023/07/07 06:37:05;;;;;;;10.63;7.28;;;18.40;99.90;;;;;;5053050;28;20463;-68
2023/07/07 06:39:31;;;;;;;10.35;8.07;;;18.50;99.90;;;;;;5087566;28;20055;-68
2023/07/07 06:41:59;;;;;;;11.02;7.55;;;18.50;99.90;;;;;;5090077;28;20404;-69
2023/07/07 06:44:24;;;;;;;10.95;7.65;;;18.60;99.90;;;;;;5089218;28;20060;-68
2023/07/07 06:46:50;;;;;;;11.90;8.23;;;18.70;99.90;;;;;;5123986;27;20081;-68
2023/07/07 06:49:16;;;;;;;10.52;7.28;;;18.70;99.90;;;;;;5090060;28;20397;-68
2023/07/07 06:51:41;;;;;;;10.98;7.32;;;18.80;99.90;;;;;;5090195;28;20377;-68
2023/07/07 06:54:07;;;;;;;10.77;7.68;;;18.90;99.90;;;;;;5091566;28;20040;-69
2023/07/07 06:56:33;;;;;;;10.60;7.13;;;19.00;99.90;;;;;;5090051;28;20094;-68
2023/07/07 06:58:58;;;;;;;12.65;7.38;;;19.00;99.90;;;;;;5123681;27;20472;-69
2023/07/07 07:01:24;;;;;;;10.98;7.18;;;19.10;99.90;;;;;;5124048;27;20477;-69
2023/07/07 07:03:50;;;;;;;12.48;7.43;;;19.10;99.90;;;;;;5091639;28;20040;-69
2023/07/07 07:06:16;;;;;;;8.82;6.35;;;19.20;99.90;;;;;;5123477;27;20059;-68
2023/07/07 07:08:41;;;;;;;8.70;6.60;;;19.30;99.90;;;;;;5089944;28;20048;-68
2023/07/07 07:11:07;;;;;;;9.98;6.60;;;19.40;99.90;;;;;;5089000;28;20061;-69
2023/07/07 07:13:33;;;;;;;9.75;6.40;;;19.40;99.90;;;;;;5088957;28;20043;-69
2023/07/07 07:15:59;;;;;;;9.35;6.55;;;19.50;99.90;;;;;;5089136;28;20044;-69
2023/07/07 07:18:25;;;;;;;8.63;5.72;;;19.60;99.90;;;;;;5089310;28;20040;-69
2023/07/07 07:20:54;;;;;;;15.65;7.25;;;19.70;99.90;;;;;;5089687;28;20059;-68
2023/07/07 07:23:21;;;;;;;10.57;7.10;;;19.70;99.90;;;;;;5091517;28;20043;-68
2023/07/07 07:25:48;;;;;;;9.90;6.55;;;19.70;99.90;;;;;;5092444;28;20043;-68
2023/07/07 07:28:15;;;;;;;10.15;7.32;;;19.90;99.90;;;;;;5091512;28;20141;-68
2023/07/07 07:30:42;;;;;;;8.73;6.32;;;19.90;99.90;;;;;;5093597;28;20375;-68
2023/07/07 07:33:20;;;;;;;9.15;6.22;;;20.10;99.90;;;;;;5091404;28;20122;-68
2023/07/07 07:35:46;;;;;;;10.32;6.03;;;20.20;99.90;;;;;;5093534;28;20169;-68
2023/07/07 07:38:15;;;;;;;11.95;6.13;;;20.30;99.90;;;;;;5075311;28;20058;-68
2023/07/07 07:40:41;;;;;;;8.75;5.57;;;20.30;99.90;;;;;;5093525;28;20036;-68
2023/07/07 07:43:07;;;;;;;8.93;5.78;;;20.40;99.90;;;;;;5108090;28;20054;-68
2023/07/07 07:45:32;;;;;;;9.57;6.13;;;20.40;99.90;;;;;;5074326;28;20101;-68
2023/07/07 07:47:58;;;;;;;9.02;5.43;;;20.50;99.90;;;;;;5073730;28;20473;-68
2023/07/07 07:50:24;;;;;;;8.85;5.78;;;20.60;99.90;;;;;;5096731;28;20107;-67
2023/07/07 07:52:50;;;;;;;8.00;4.97;;;20.70;99.90;;;;;;5091788;28;20032;-68
2023/07/07 07:55:16;;;;;;;7.75;5.03;;;20.80;99.90;;;;;;5104859;28;20423;-67
2023/07/07 07:57:44;;;;;;;7.93;4.45;;;20.80;99.90;;;;;;5095699;28;20430;-65
2023/07/07 08:00:10;;;;;;;8.35;5.68;;;20.80;99.90;;;;;;5091722;28;20047;-66
2023/07/07 08:02:37;;;;;;;9.25;4.28;;;20.90;99.90;;;;;;5091696;28;20658;-65
2023/07/07 08:05:03;;;;;;;11.35;4.60;;;20.90;99.90;;;;;;5090881;28;20039;-66
2023/07/07 08:07:30;;;;;;;10.20;4.70;;;21.00;99.90;;;;;;5091157;28;20058;-65
2023/07/07 08:09:56;;;;;;;8.43;4.63;;;21.10;99.90;;;;;;5087346;28;20041;-64
2023/07/07 08:12:22;;;;;;;9.38;4.13;;;21.20;99.90;;;;;;5072302;28;20040;-65
2023/07/07 08:14:48;;;;;;;9.07;3.92;;;21.30;99.90;;;;;;5074873;28;20477;-65
2023/07/07 08:17:14;;;;;;;6.43;3.90;;;21.40;99.90;;;;;;5090588;28;20117;-65
2023/07/07 08:19:42;;;;;;;7.45;4.15;;;21.50;99.90;;;;;;5091184;28;20086;-67
2023/07/07 08:22:19;;;;;;;8.45;4.28;;;21.50;99.90;;;;;;5090716;28;20539;-66
2023/07/07 08:24:51;;;;;;;6.40;4.28;;;21.50;99.90;;;;;;5070930;28;20041;-66
2023/07/07 08:27:18;;;;;;;10.40;4.45;;;21.60;99.90;;;;;;5079050;28;20039;-65
2023/07/07 08:29:44;;;;;;;8.73;3.42;;;21.70;99.90;;;;;;5073197;28;20040;-65
2023/07/07 08:32:12;;;;;;;7.15;3.60;;;21.90;99.90;;;;;;5092083;28;20040;-65
2023/07/07 08:34:38;;;;;;;7.05;3.20;;;21.90;99.90;;;;;;5091179;28;20060;-65
2023/07/07 08:37:05;;;;;;;6.55;3.92;;;22.00;99.90;;;;;;5090335;28;20048;-66
2023/07/07 08:39:31;;;;;;;8.38;3.85;;;22.10;99.90;;;;;;5074496;28;20389;-70
2023/07/07 08:42:25;;;;;;;6.90;3.10;;;22.10;99.90;;;;;;5073089;28;20086;-62
2023/07/07 08:44:52;;;;;;;7.40;3.00;;;22.10;99.90;;;;;;5116456;28;20488;-66
2023/07/07 08:47:44;;;;;;;9.02;3.60;;;22.10;99.90;;;;;;5092321;28;20028;-66
2023/07/07 08:50:49;;;;;;;6.43;3.05;;;22.20;99.90;;;;;;5090901;28;20036;-66
2023/07/07 08:53:43;;;;;;;6.18;2.97;;;22.20;99.90;;;;;;5089499;28;20158;-66
2023/07/07 08:56:16;;;;;;;5.25;2.90;;;22.40;99.90;;;;;;5091202;28;20044;-66
2023/07/07 08:59:01;;;;;;;7.38;3.08;;;22.50;99.90;;;;;;5090221;28;20378;-66
2023/07/07 09:01:46;;;;;;;7.20;3.03;;;22.70;99.90;;;;;;5090755;28;20051;-66
2023/07/07 09:04:26;;;;;;;7.00;3.47;;;22.70;99.90;;;;;;5092068;28;20036;-66
2023/07/07 09:07:26;;;;;;;9.05;2.92;;;22.70;99.80;;;;;;5089723;28;20516;-66
2023/07/07 09:10:19;;;;;;;8.70;2.92;;;22.80;99.30;;;;;;5090874;28;20076;-66
2023/07/07 09:12:50;;;;;;;9.48;3.22;;;22.80;98.20;;;;;;5090898;28;20492;-66
2023/07/07 09:15:22;;;;;;;6.93;2.60;;;22.70;98.00;;;;;;5091940;28;20044;-66
2023/07/07 09:17:53;;;;;;;6.75;2.80;;;22.80;97.50;;;;;;5090599;28;20048;-66
2023/07/07 09:20:22;;;;;;;5.75;2.92;;;22.90;97.00;;;;;;5091006;28;20051;-66
2023/07/07 09:22:58;;;;;;;5.15;2.33;;;22.90;97.20;;;;;;5091954;28;20438;-66
2023/07/07 09:25:31;;;;;;;7.20;3.20;;;22.90;97.10;;;;;;5090495;28;20485;-66
2023/07/07 09:28:00;;;;;;;5.75;2.35;;;23.00;96.90;;;;;;5093946;28;20040;-66
2023/07/07 09:30:29;;;;;;;5.00;2.45;;;23.10;96.30;;;;;;5094240;28;20047;-66
2023/07/07 09:32:55;;;;;;;4.97;2.50;;;23.10;95.40;;;;;;5094826;28;20044;-66
2023/07/07 09:35:22;;;;;;;5.72;2.30;;;23.30;95.20;;;;;;5094160;28;20075;-66
2023/07/07 09:38:02;;;;;;;6.75;2.65;;;23.30;94.00;;;;;;5077455;28;20494;-66
2023/07/07 09:40:57;;;;;;;5.13;2.47;;;23.30;93.00;;;;;;5093335;28;20083;-66
2023/07/07 09:43:43;;;;;;;5.50;2.33;;;23.50;92.20;;;;;;5095315;28;20432;-66
2023/07/07 09:46:30;;;;;;;5.50;2.58;;;23.50;91.40;;;;;;5095710;28;20110;-66
2023/07/07 09:49:20;;;;;;;6.97;2.83;;;23.60;91.30;;;;;;5093202;28;20516;-68
2023/07/07 09:52:07;;;;;;;7.78;2.72;;;23.80;90.70;;;;;;5095272;28;20036;-66
2023/07/07 09:54:34;;;;;;;6.28;2.80;;;23.80;90.40;;;;;;5094442;28;20047;-66
2023/07/07 09:57:13;;;;;;;6.40;2.58;;;23.80;90.20;;;;;;5094233;28;20095;-66
2023/07/07 09:59:45;;;;;;;5.32;2.65;;;23.90;88.90;;;;;;5095462;28;20132;-66
2023/07/07 10:02:17;;;;;;;6.47;2.47;;;24.00;88.00;;;;;;5093274;28;20044;-66
2023/07/07 10:04:52;;;;;;;5.30;2.30;;;24.00;88.20;;;;;;5093745;28;20051;-66
2023/07/07 10:07:19;;;;;;;5.03;2.15;;;24.10;87.20;;;;;;5094572;28;20058;-66
2023/07/07 10:13:25;;;;;;;6.80;2.75;;;24.10;86.90;;;;;;5090019;28;20058;-66
2023/07/07 10:15:55;;;;;;;5.22;2.75;;;24.10;86.90;;;;;;5108870;28;20040;-66
2023/07/07 10:18:24;;;;;;;5.93;2.80;;;24.10;86.10;;;;;;5113955;28;20040;-66
2023/07/07 10:20:52;;;;;;;6.47;2.60;;;24.20;85.80;;;;;;5114128;28;20044;-66
2023/07/07 10:23:17;;;;;;;4.88;2.65;;;24.30;85.80;;;;;;5114527;28;20043;-66
2023/07/07 10:25:44;;;;;;;6.25;2.70;;;24.40;85.20;;;;;;5096449;28;20043;-66
2023/07/07 10:28:15;;;;;;;5.20;2.65;;;24.40;84.80;;;;;;5093537;28;20048;-66
2023/07/07 10:30:43;;;;;;;6.88;2.97;;;24.40;84.00;;;;;;5092507;28;20040;-66
2023/07/07 10:33:11;;;;;;;4.57;2.30;;;24.50;85.00;;;;;;5104547;28;20126;-66
2023/07/07 10:35:37;;;;;;;5.82;2.75;;;24.50;84.30;;;;;;5111810;28;20050;-66
2023/07/07 10:38:04;;;;;;;4.45;2.40;;;24.70;81.90;;;;;;5095163;28;20392;-66
2023/07/07 10:40:31;;;;;;;6.53;3.08;;;24.80;80.70;;;;;;5093325;28;20166;-66
2023/07/07 10:42:58;;;;;;;5.93;2.67;;;24.80;81.10;;;;;;5106259;28;20118;-66
2023/07/07 10:45:24;;;;;;;6.97;3.45;;;24.80;81.10;;;;;;5112935;28;20044;-66
2023/07/07 10:47:50;;;;;;;6.53;3.08;;;25.00;81.80;;;;;;5113694;28;20035;-66
2023/07/07 10:50:20;;;;;;;6.53;2.65;;;25.10;79.90;;;;;;5112231;28;20077;-66
2023/07/07 10:53:13;;;;;;;6.10;3.03;;;25.20;79.80;;;;;;5097365;28;20539;-67
2023/07/07 10:55:54;;;;;;;5.90;2.58;;;25.30;78.90;;;;;;5092926;28;20131;-65
2023/07/07 10:58:29;;;;;;;5.70;2.70;;;25.30;79.10;;;;;;5123575;27;20044;-66
2023/07/07 11:01:06;;;;;;;6.10;2.60;;;25.30;76.20;;;;;;5069641;28;20141;-66
2023/07/07 11:03:59;;;;;;;6.13;2.78;;;25.30;75.80;;;;;;5089219;28;20059;-66
2023/07/07 11:06:47;;;;;;;5.25;2.40;;;25.40;78.30;;;;;;5072990;28;20044;-66
2023/07/07 11:09:31;;;;;;;4.53;2.50;;;25.40;77.40;;;;;;5087640;28;20510;-66
2023/07/07 11:12:05;;;;;;;8.30;3.10;;;25.30;75.40;;;;;;5088201;28;20055;-66
2023/07/07 11:15:00;;;;;;;6.20;2.45;;;25.40;75.80;;;;;;5089745;28;20056;-66
2023/07/07 11:17:55;;;;;;;6.63;2.97;;;25.50;75.00;;;;;;5088415;28;20036;-66
2023/07/07 11:20:39;;;;;;;4.95;2.53;;;25.60;76.40;;;;;;5088648;28;20502;-65
2023/07/07 11:23:35;;;;;;;8.07;2.45;;;25.50;74.90;;;;;;5123156;27;20047;-66
2023/07/07 11:26:19;;;;;;;5.38;2.70;;;25.60;75.40;;;;;;5089086;28;20507;-65
2023/07/07 11:28:45;;;;;;;;;;;25.60;76.40;;;;;;5091307;28;20067;-66
2023/07/07 11:31:16;;;;;;;4.95;2.70;;;25.70;77.20;;;;;;5089871;28;20360;-65
2023/07/07 11:33:58;;;;;;;5.65;2.55;;;25.80;75.80;;;;;;5122545;27;20097;-66
2023/07/07 11:36:42;;;;;;;8.60;3.38;;;25.90;75.90;;;;;;5088688;28;20114;-65
2023/07/07 11:39:24;;;;;;;;;;;26.00;76.10;;;;;;5089611;28;20091;-65
2023/07/07 11:42:13;;;;;;;5.50;2.88;;;26.00;75.10;;;;;;5088925;28;19920;-66
2023/07/07 11:44:47;;;;;;;6.13;2.65;;;26.10;75.00;;;;;;5088610;28;20091;-65
2023/07/07 11:47:35;;;;;;;5.97;3.03;;;26.20;74.20;;;;;;5088774;28;20087;-66
2023/07/07 11:50:10;;;;;;;6.72;3.05;;;26.20;74.00;;;;;;5087693;28;20044;-65
2023/07/07 11:52:48;;;;;;;4.88;2.47;;;26.20;73.80;;;;;;5088004;28;20101;-68
2023/07/07 11:55:44;;;;;;;4.55;2.40;;;26.30;72.90;;;;;;5090868;28;20075;-68
2023/07/07 11:58:39;;;;;;;5.97;2.38;;;26.40;72.30;;;;;;5090630;28;20069;-68
2023/07/07 12:01:15;;;;;;;5.35;2.53;;;26.40;72.00;;;;;;5089759;28;20497;-67
2023/07/07 12:04:06;;;;;;;7.13;2.60;;;26.30;72.10;;;;;;5071648;28;20043;-67
2023/07/07 12:06:45;;;;;;;5.80;2.90;;;26.40;70.90;;;;;;5088744;28;20075;-67
2023/07/07 12:09:14;;;;;;;5.57;2.58;;;26.40;69.20;;;;;;5088642;28;20044;-68
2023/07/07 12:11:47;;;;;;;5.10;2.65;;;26.40;69.00;;;;;;5090477;28;20057;-67
2023/07/07 12:14:33;;;;;;;5.43;2.47;;;26.40;68.90;;;;;;5092249;28;20539;-67
2023/07/07 12:17:00;;;;;;;6.80;2.58;;;26.40;70.30;;;;;;5093259;28;20055;-68
2023/07/07 12:19:35;;;;;;;6.13;2.97;;;26.40;70.10;;;;;;5088924;28;20052;-67
2023/07/07 12:22:04;;;;;;;5.55;2.50;;;26.60;69.90;;;;;;5096016;28;20075;-68
2023/07/07 12:24:57;;;;;;;6.70;2.60;;;26.60;70.40;;;;;;5108746;28;20408;-67
2023/07/07 12:27:29;;;;;;;6.40;2.78;;;26.60;70.70;;;;;;5092140;28;20093;-67
2023/07/07 12:29:56;;;;;;;5.85;2.58;;;26.70;70.70;;;;;;5104323;28;20115;-67
2023/07/07 12:32:22;;;;;;;4.70;2.30;;;26.70;69.10;;;;;;5099281;28;20031;-67
2023/07/07 12:35:00;;;;;;;6.05;2.63;;;26.80;68.00;;;;;;5108654;28;20108;-68
2023/07/07 12:37:26;;;;;;;6.60;3.08;;;26.90;67.70;;;;;;5109034;28;20384;-67
2023/07/07 12:40:04;;;;;;;5.15;2.85;;;26.90;67.30;;;;;;5095128;28;20055;-66
2023/07/07 12:42:31;;;;;;;4.60;2.58;;;26.90;66.90;;;;;;5101141;28;20493;-65
2023/07/07 12:45:15;;;;;;;6.72;3.15;;;27.00;67.80;;;;;;5121499;27;20052;-65
2023/07/07 12:47:41;;;;;;;4.75;2.78;;;27.00;68.80;;;;;;5122191;27;20405;-65
2023/07/07 12:50:26;;;;;;;6.55;3.03;;;27.00;68.40;;;;;;5087814;28;20440;-65
2023/07/07 12:52:56;;;;;;;6.47;2.80;;;26.80;67.00;;;;;;5089169;28;20492;-65
2023/07/07 12:55:28;;;;;;;7.43;3.08;;;26.40;67.40;;;;;;5088996;28;20447;-65
2023/07/07 12:58:07;;;;;;;5.45;3.05;;;26.20;68.00;;;;;;5085958;28;20105;-65
2023/07/07 13:00:41;;;;;;;5.55;2.83;;;26.20;69.60;;;;;;5123503;27;20075;-65
2023/07/07 13:03:09;;;;;;;;;;;26.40;69.50;;;;;;5092894;28;20048;-65
2023/07/07 13:05:44;;;;;;;5.90;2.80;;;26.70;69.80;;;;;;5092797;28;19924;-65
2023/07/07 13:08:09;;;;;;;4.70;2.47;;;26.80;66.20;;;;;;5092043;28;20123;-65
2023/07/07 13:10:47;;;;;;;6.95;2.72;;;26.90;67.00;;;;;;5092752;28;20127;-65